Time;durP1;ratioP1;P1;durP2;ratioP2;P2;SDS_P1;SDS_P2;PMS_P1;PMS_P2;Temp;Humidity;BMP_temperature;BMP_pressure;BME280_temperature;BME280_humidity;BME280_pressure;Samples;Min_cycle;Max_cycle;Signal;HPM_P1;HPM_P2
2022/01/05 00:02:17;;;;;;;1.40;1.30;;;4.70;99.90;;;;;;5069030;28;20215;-86
2022/01/05 00:04:44;;;;;;;1.40;1.30;;;4.70;99.90;;;;;;5067664;28;20213;-84
2022/01/05 00:07:12;;;;;;;1.15;1.15;;;4.70;99.90;;;;;;5064203;28;20193;-86
2022/01/05 00:09:38;;;;;;;1.15;1.10;;;4.70;99.90;;;;;;5069733;28;20193;-87
2022/01/05 00:12:06;;;;;;;1.05;1.00;;;4.70;99.90;;;;;;5069768;28;20204;-85
2022/01/05 00:14:34;;;;;;;1.20;1.10;;;4.70;99.90;;;;;;5066620;28;20221;-85
2022/01/05 00:17:01;;;;;;;1.08;0.90;;;4.90;99.90;;;;;;5070434;28;20197;-85
2022/01/05 00:19:28;;;;;;;1.42;1.33;;;5.00;99.90;;;;;;5062424;28;20206;-83
2022/01/05 00:21:55;;;;;;;1.17;1.17;;;5.00;99.90;;;;;;5067875;28;20207;-86
2022/01/05 00:24:22;;;;;;;1.15;1.00;;;4.90;99.90;;;;;;5067961;28;20214;-86
2022/01/05 00:26:49;;;;;;;1.30;1.10;;;4.90;99.90;;;;;;5069756;28;20205;-87
2022/01/05 00:29:16;;;;;;;0.60;0.60;;;4.80;99.90;;;;;;5072451;28;20202;-86
2022/01/05 00:31:44;;;;;;;0.60;0.60;;;4.80;99.90;;;;;;5073557;28;20197;-86
2022/01/05 00:34:11;;;;;;;0.70;0.70;;;4.70;99.90;;;;;;5071909;28;20602;-84
2022/01/05 00:36:37;;;;;;;0.88;0.85;;;4.60;99.90;;;;;;5069857;28;20206;-86
2022/01/05 00:39:04;;;;;;;0.65;0.65;;;4.60;99.90;;;;;;5065037;28;20199;-87
2022/01/05 00:41:31;;;;;;;0.73;0.73;;;4.60;99.90;;;;;;5071481;28;20205;-83
2022/01/05 00:43:58;;;;;;;1.00;0.82;;;4.60;99.90;;;;;;5074334;28;20231;-85
2022/01/05 00:46:25;;;;;;;1.15;0.60;;;4.60;99.90;;;;;;5070980;28;20250;-82
2022/01/05 00:48:53;;;;;;;0.82;0.82;;;4.70;99.90;;;;;;5068357;28;20201;-84
2022/01/05 00:51:19;;;;;;;0.55;0.55;;;4.80;99.90;;;;;;5067916;28;20202;-84
2022/01/05 00:53:46;;;;;;;0.65;0.65;;;4.80;99.90;;;;;;5073670;28;20221;-85
2022/01/05 00:56:13;;;;;;;1.00;1.00;;;4.90;99.90;;;;;;5066606;28;20632;-82
2022/01/05 00:58:40;;;;;;;1.10;0.70;;;4.90;99.90;;;;;;5069249;28;20238;-83
2022/01/05 01:01:06;;;;;;;0.55;0.55;;;4.80;99.90;;;;;;5067532;28;20204;-83
2022/01/05 01:03:33;;;;;;;0.77;0.77;;;4.80;99.90;;;;;;5067890;28;20223;-82
2022/01/05 01:06:02;;;;;;;0.70;0.70;;;4.80;99.90;;;;;;5069069;28;20193;-83
2022/01/05 01:08:29;;;;;;;0.50;0.50;;;4.90;99.90;;;;;;5067024;28;20209;-83
2022/01/05 01:10:55;;;;;;;1.63;0.77;;;4.80;99.90;;;;;;5068421;28;20220;-82
2022/01/05 01:13:22;;;;;;;0.65;0.65;;;4.70;99.90;;;;;;5070021;28;20202;-82
2022/01/05 01:15:50;;;;;;;0.50;0.50;;;4.70;99.90;;;;;;5067738;28;20229;-83
2022/01/05 01:18:17;;;;;;;0.30;0.30;;;4.70;99.90;;;;;;5067951;28;20200;-83
2022/01/05 01:20:45;;;;;;;0.40;0.40;;;4.60;99.90;;;;;;5065990;28;20207;-83
2022/01/05 01:23:13;;;;;;;1.08;1.02;;;4.60;99.90;;;;;;5070127;28;20197;-80
2022/01/05 01:25:40;;;;;;;0.40;0.40;;;4.60;99.90;;;;;;5069226;28;20205;-82
2022/01/05 01:28:07;;;;;;;0.40;0.40;;;4.70;99.90;;;;;;5062510;28;20202;-83
2022/01/05 01:30:34;;;;;;;0.60;0.60;;;4.70;99.90;;;;;;5059105;28;20202;-82
2022/01/05 01:33:01;;;;;;;0.50;0.50;;;4.70;99.90;;;;;;5060034;28;20198;-83
2022/01/05 01:35:28;;;;;;;0.52;0.52;;;4.70;99.90;;;;;;5068544;28;20217;-83
2022/01/05 01:37:55;;;;;;;0.90;0.65;;;4.70;99.90;;;;;;5070899;28;20205;-83
2022/01/05 01:40:24;;;;;;;0.50;0.50;;;4.80;99.90;;;;;;5067299;28;20208;-82
2022/01/05 01:42:51;;;;;;;0.45;0.40;;;4.60;99.90;;;;;;5065133;28;20204;-82
2022/01/05 01:45:18;;;;;;;0.55;0.40;;;4.70;99.90;;;;;;5059776;28;20497;-83
2022/01/05 01:47:46;;;;;;;0.50;0.50;;;4.70;99.90;;;;;;5062052;28;20211;-83
2022/01/05 01:50:13;;;;;;;0.55;0.32;;;4.70;99.90;;;;;;5062025;28;20726;-83
2022/01/05 01:52:40;;;;;;;0.95;0.57;;;4.60;99.90;;;;;;5066298;28;20197;-83
2022/01/05 01:55:09;;;;;;;0.50;0.50;;;4.70;99.90;;;;;;5068266;28;20511;-83
2022/01/05 01:57:42;;;;;;;0.98;0.65;;;4.70;99.90;;;;;;5068946;28;20197;-83
2022/01/05 02:00:11;;;;;;;0.40;0.40;;;4.80;99.90;;;;;;5067119;28;20211;-83
2022/01/05 02:02:38;;;;;;;0.47;0.47;;;4.80;99.90;;;;;;5064104;28;20206;-83
2022/01/05 02:05:06;;;;;;;0.85;0.68;;;4.80;99.90;;;;;;5071335;28;20251;-84
2022/01/05 02:07:32;;;;;;;0.57;0.57;;;4.90;99.90;;;;;;5061616;28;20194;-83
2022/01/05 02:09:59;;;;;;;0.63;0.60;;;4.90;99.90;;;;;;5063635;28;20213;-82
2022/01/05 02:12:27;;;;;;;0.60;0.57;;;4.90;99.90;;;;;;5059905;28;20206;-84
2022/01/05 02:14:56;;;;;;;0.70;0.70;;;5.00;99.90;;;;;;5058712;28;20267;-83
2022/01/05 02:17:29;;;;;;;0.80;0.60;;;5.00;99.90;;;;;;5059023;28;20220;-83
2022/01/05 02:19:56;;;;;;;0.60;0.60;;;5.00;99.90;;;;;;5059124;28;20202;-83
2022/01/05 02:22:25;;;;;;;0.52;0.52;;;4.90;99.90;;;;;;5058700;28;20217;-83
2022/01/05 02:24:51;;;;;;;0.55;0.55;;;4.90;99.90;;;;;;5058616;28;20225;-82
2022/01/05 02:27:18;;;;;;;0.52;0.52;;;4.90;99.90;;;;;;5058529;28;20193;-83
2022/01/05 02:29:45;;;;;;;3.83;0.70;;;5.00;99.90;;;;;;5059332;28;20220;-83
2022/01/05 02:32:12;;;;;;;0.90;0.77;;;5.00;99.90;;;;;;5061840;28;20185;-83
2022/01/05 02:34:39;;;;;;;0.30;0.30;;;5.10;99.90;;;;;;5067591;28;20249;-83
2022/01/05 02:37:05;;;;;;;0.70;0.70;;;5.00;99.90;;;;;;5060760;28;20212;-82
2022/01/05 02:39:34;;;;;;;0.40;0.40;;;5.10;99.90;;;;;;5059885;28;20215;-83
2022/01/05 02:42:00;;;;;;;0.65;0.60;;;5.10;99.90;;;;;;5057800;28;20654;-84
2022/01/05 02:44:27;;;;;;;0.52;0.52;;;5.10;99.90;;;;;;5057697;28;20238;-84
2022/01/05 02:46:54;;;;;;;1.55;1.27;;;5.10;99.90;;;;;;5058302;28;20220;-83
2022/01/05 02:49:20;;;;;;;0.57;0.57;;;5.10;99.90;;;;;;5058355;28;20233;-83
2022/01/05 02:51:47;;;;;;;0.40;0.40;;;5.10;99.90;;;;;;5057798;28;20209;-84
2022/01/05 02:54:14;;;;;;;1.95;0.75;;;5.10;99.90;;;;;;5057591;28;20238;-84
2022/01/05 02:56:42;;;;;;;0.60;0.60;;;5.10;99.90;;;;;;5058353;28;20225;-84
2022/01/05 02:59:09;;;;;;;0.52;0.52;;;5.00;99.90;;;;;;5058889;28;20209;-83
2022/01/05 03:01:36;;;;;;;0.82;0.82;;;5.00;99.90;;;;;;5057722;28;20202;-84
2022/01/05 03:04:05;;;;;;;0.50;0.45;;;5.00;99.90;;;;;;5058036;28;20229;-82
2022/01/05 03:06:31;;;;;;;0.40;0.40;;;5.00;99.90;;;;;;5054193;28;20669;-83
2022/01/05 03:08:58;;;;;;;0.60;0.60;;;4.90;99.90;;;;;;5057838;28;20227;-82
2022/01/05 03:11:25;;;;;;;0.63;0.63;;;4.90;99.90;;;;;;5058514;28;20205;-83
2022/01/05 03:13:53;;;;;;;0.80;0.80;;;4.80;99.90;;;;;;5058173;28;20742;-83
2022/01/05 03:16:19;;;;;;;0.50;0.50;;;4.80;99.90;;;;;;5058389;28;20608;-83
2022/01/05 03:18:46;;;;;;;0.40;0.40;;;4.80;99.90;;;;;;5057867;28;20210;-82
2022/01/05 03:21:13;;;;;;;0.35;0.35;;;4.90;99.90;;;;;;5057712;28;20202;-83
2022/01/05 03:23:41;;;;;;;0.50;0.50;;;4.80;99.90;;;;;;5057750;28;20233;-83
2022/01/05 03:26:07;;;;;;;0.50;0.50;;;4.80;99.90;;;;;;5057991;28;20202;-82
2022/01/05 03:28:34;;;;;;;0.30;0.30;;;4.80;99.90;;;;;;5063484;28;20209;-83
2022/01/05 03:31:02;;;;;;;1.23;0.80;;;4.80;99.90;;;;;;5062532;28;20224;-82
2022/01/05 03:33:30;;;;;;;0.40;0.40;;;4.80;99.90;;;;;;5057888;28;20205;-83
2022/01/05 03:35:57;;;;;;;0.35;0.35;;;4.80;99.90;;;;;;5056653;28;20295;-83
2022/01/05 03:38:24;;;;;;;0.57;0.57;;;4.80;99.90;;;;;;5057682;28;20634;-83
2022/01/05 03:40:51;;;;;;;0.38;0.38;;;4.90;99.90;;;;;;5057375;28;20200;-83
2022/01/05 03:43:18;;;;;;;2.28;0.68;;;4.90;99.90;;;;;;5057590;28;20202;-83
2022/01/05 03:45:45;;;;;;;0.40;0.40;;;4.90;99.90;;;;;;5057411;28;20855;-83
2022/01/05 03:48:15;;;;;;;0.70;0.70;;;4.90;99.90;;;;;;5057425;28;20209;-83
2022/01/05 03:50:42;;;;;;;0.40;0.40;;;4.90;99.90;;;;;;5056868;28;20194;-83
2022/01/05 03:53:10;;;;;;;0.50;0.50;;;4.80;99.90;;;;;;5057678;28;20219;-82
2022/01/05 03:55:38;;;;;;;0.40;0.40;;;4.80;99.90;;;;;;5057192;28;20229;-84
2022/01/05 03:58:06;;;;;;;0.50;0.50;;;4.70;99.90;;;;;;5057448;28;20557;-83
2022/01/05 04:00:34;;;;;;;1.13;0.50;;;4.80;99.90;;;;;;5056619;28;20198;-83
2022/01/05 04:03:01;;;;;;;0.80;0.80;;;4.80;99.90;;;;;;5056944;28;20205;-83
2022/01/05 04:05:29;;;;;;;0.40;0.40;;;4.70;99.90;;;;;;5059961;28;20346;-83
2022/01/05 04:07:56;;;;;;;0.45;0.45;;;4.80;99.90;;;;;;5061934;28;20209;-83
2022/01/05 04:10:23;;;;;;;0.30;0.30;;;4.70;99.90;;;;;;5061474;28;20209;-83
2022/01/05 04:12:50;;;;;;;0.30;0.30;;;4.70;99.90;;;;;;5061555;28;20201;-82
2022/01/05 04:15:18;;;;;;;0.68;0.52;;;4.70;99.90;;;;;;5061194;28;20232;-83
2022/01/05 04:17:44;;;;;;;0.38;0.38;;;4.70;99.90;;;;;;5061427;28;20214;-83
2022/01/05 04:20:13;;;;;;;0.50;0.50;;;4.70;99.90;;;;;;5060689;28;20198;-83
2022/01/05 04:22:41;;;;;;;1.05;0.73;;;4.80;99.90;;;;;;5060867;28;20194;-82
2022/01/05 04:25:09;;;;;;;0.40;0.30;;;4.70;99.90;;;;;;5061259;28;20228;-83
2022/01/05 04:27:36;;;;;;;0.40;0.40;;;4.70;99.90;;;;;;5061491;28;20208;-83
2022/01/05 04:30:04;;;;;;;0.40;0.40;;;4.80;99.90;;;;;;5061576;28;20202;-83
2022/01/05 04:32:30;;;;;;;0.40;0.40;;;4.70;99.90;;;;;;5060930;28;20209;-83
2022/01/05 04:34:57;;;;;;;0.30;0.30;;;4.80;99.90;;;;;;5060139;28;20221;-84
2022/01/05 04:37:24;;;;;;;0.75;0.50;;;4.70;99.90;;;;;;5060799;28;20202;-84
2022/01/05 04:39:52;;;;;;;0.40;0.40;;;4.70;99.90;;;;;;5060959;28;20212;-82
2022/01/05 04:42:19;;;;;;;0.47;0.30;;;4.80;99.90;;;;;;5061090;28;20217;-82
2022/01/05 04:44:46;;;;;;;0.52;0.52;;;4.70;99.90;;;;;;5060551;28;20233;-82
2022/01/05 04:47:13;;;;;;;0.50;0.50;;;4.70;99.90;;;;;;5060855;28;20246;-82
2022/01/05 04:49:40;;;;;;;0.80;0.55;;;4.60;99.90;;;;;;5060898;28;20206;-82
2022/01/05 04:52:07;;;;;;;0.40;0.40;;;4.60;99.90;;;;;;5060827;28;20202;-81
2022/01/05 04:54:34;;;;;;;0.30;0.30;;;4.50;99.90;;;;;;5061145;28;20229;-83
2022/01/05 04:57:03;;;;;;;0.40;0.40;;;4.50;99.90;;;;;;5061820;28;20255;-82
2022/01/05 04:59:29;;;;;;;0.40;0.40;;;4.40;99.90;;;;;;5061333;28;20593;-83
2022/01/05 05:01:56;;;;;;;0.70;0.70;;;4.30;99.90;;;;;;5061830;28;20208;-83
2022/01/05 05:04:23;;;;;;;0.70;0.60;;;4.30;99.90;;;;;;5061771;28;20221;-83
2022/01/05 05:06:50;;;;;;;0.80;0.55;;;4.40;99.90;;;;;;5061675;28;20295;-83
2022/01/05 05:09:16;;;;;;;0.50;0.50;;;4.30;99.90;;;;;;5061593;28;20201;-83
2022/01/05 05:11:43;;;;;;;0.65;0.65;;;4.20;99.90;;;;;;5061598;28;20213;-82
2022/01/05 05:14:12;;;;;;;0.43;0.43;;;4.20;99.90;;;;;;5061512;28;20595;-83
2022/01/05 05:16:39;;;;;;;0.70;0.70;;;4.20;99.90;;;;;;5060914;28;20229;-83
2022/01/05 05:19:05;;;;;;;0.40;0.40;;;4.10;99.90;;;;;;5061131;28;20228;-82
2022/01/05 05:21:32;;;;;;;0.70;0.70;;;4.00;99.90;;;;;;5061162;28;20213;-83
2022/01/05 05:23:59;;;;;;;0.52;0.52;;;4.00;99.90;;;;;;5061422;28;20686;-83
2022/01/05 05:26:26;;;;;;;0.75;0.75;;;4.00;99.90;;;;;;5061229;28;20208;-82
2022/01/05 05:28:53;;;;;;;1.02;0.70;;;4.00;99.90;;;;;;5061390;28;20201;-84
2022/01/05 05:31:22;;;;;;;0.90;0.90;;;3.90;99.90;;;;;;5061005;28;20713;-82
2022/01/05 05:33:49;;;;;;;0.98;0.98;;;3.90;99.90;;;;;;5060809;28;20217;-83
2022/01/05 05:36:15;;;;;;;0.60;0.60;;;3.70;99.90;;;;;;5060414;28;20295;-84
2022/01/05 05:38:42;;;;;;;1.02;0.50;;;2.90;99.90;;;;;;5059019;28;20215;-81
2022/01/05 05:41:09;;;;;;;0.43;0.43;;;2.30;99.90;;;;;;5058624;28;20200;-82
2022/01/05 05:43:36;;;;;;;0.55;0.55;;;2.00;99.90;;;;;;5071612;28;20930;-81
2022/01/05 05:46:02;;;;;;;0.52;0.52;;;1.60;99.90;;;;;;5077967;28;20198;-81
2022/01/05 05:48:30;;;;;;;1.05;1.05;;;1.50;99.90;;;;;;5077641;28;20209;-81
2022/01/05 05:50:57;;;;;;;0.68;0.68;;;1.40;99.90;;;;;;5071656;28;20205;-81
2022/01/05 05:53:24;;;;;;;0.40;0.40;;;1.40;99.90;;;;;;5058541;28;20205;-82
2022/01/05 05:55:50;;;;;;;0.70;0.55;;;1.30;99.90;;;;;;5058299;28;20230;-81
2022/01/05 05:58:17;;;;;;;0.68;0.47;;;1.20;99.90;;;;;;5058704;28;20201;-82
2022/01/05 06:00:44;;;;;;;2.08;0.85;;;1.20;99.90;;;;;;5058770;28;20205;-82
2022/01/05 06:03:11;;;;;;;0.50;0.50;;;1.20;99.90;;;;;;5059564;28;20210;-82
2022/01/05 06:05:39;;;;;;;1.38;1.27;;;1.20;99.90;;;;;;5058523;28;20232;-82
2022/01/05 06:08:06;;;;;;;0.90;0.90;;;1.20;99.90;;;;;;5060158;28;20582;-82
2022/01/05 06:10:33;;;;;;;1.65;1.27;;;1.20;99.90;;;;;;5059346;28;20659;-80
2022/01/05 06:12:59;;;;;;;1.00;0.85;;;1.30;99.90;;;;;;5059615;28;20590;-81
2022/01/05 06:15:26;;;;;;;1.05;0.98;;;1.30;99.90;;;;;;5058945;28;20254;-81
2022/01/05 06:17:53;;;;;;;1.75;1.63;;;1.30;99.90;;;;;;5059761;28;20211;-81
2022/01/05 06:20:21;;;;;;;1.13;1.02;;;1.40;99.90;;;;;;5058507;28;20217;-81
2022/01/05 06:22:49;;;;;;;1.10;1.02;;;1.40;99.90;;;;;;5059761;28;20202;-81
2022/01/05 06:25:15;;;;;;;1.98;1.88;;;1.50;99.90;;;;;;5058362;28;20222;-81
2022/01/05 06:27:42;;;;;;;1.40;1.30;;;1.60;99.90;;;;;;5058318;28;20207;-81
2022/01/05 06:30:11;;;;;;;1.75;1.65;;;1.60;99.90;;;;;;5057805;28;20586;-81
2022/01/05 06:32:43;;;;;;;2.15;2.05;;;1.70;99.90;;;;;;5060077;28;20289;-81
2022/01/05 06:35:10;;;;;;;1.02;0.93;;;1.70;99.90;;;;;;5064864;28;20222;-80
2022/01/05 06:37:37;;;;;;;2.40;1.48;;;1.70;99.90;;;;;;5058009;28;20226;-81
2022/01/05 06:40:07;;;;;;;0.82;0.82;;;1.60;99.90;;;;;;5057938;28;20578;-81
2022/01/05 06:42:34;;;;;;;1.80;1.70;;;1.50;99.90;;;;;;5065885;28;20276;-84
2022/01/05 06:45:00;;;;;;;2.20;2.05;;;1.60;99.90;;;;;;5063434;28;20241;-84
2022/01/05 06:47:28;;;;;;;1.88;1.75;;;1.50;99.90;;;;;;5063867;28;20201;-84
2022/01/05 06:49:55;;;;;;;1.85;1.73;;;1.50;99.90;;;;;;5066237;28;20198;-84
2022/01/05 06:52:22;;;;;;;1.70;1.60;;;1.50;99.90;;;;;;5064443;28;20213;-84
2022/01/05 06:54:48;;;;;;;1.70;1.60;;;1.60;99.90;;;;;;5064477;28;20238;-85
2022/01/05 06:57:17;;;;;;;1.30;1.20;;;1.60;99.90;;;;;;5062517;28;20317;-84
2022/01/05 06:59:44;;;;;;;1.67;1.58;;;1.60;99.90;;;;;;5066002;28;20201;-85
2022/01/05 07:02:10;;;;;;;2.72;1.45;;;1.60;99.90;;;;;;5063410;28;20205;-84
2022/01/05 07:04:37;;;;;;;2.45;1.30;;;1.60;99.90;;;;;;5061199;28;20225;-85
2022/01/05 07:07:05;;;;;;;1.48;1.38;;;1.60;99.90;;;;;;5058879;28;20199;-86
2022/01/05 07:09:32;;;;;;;1.85;1.50;;;1.70;99.90;;;;;;5060651;28;20209;-85
2022/01/05 07:11:58;;;;;;;1.70;1.60;;;1.70;99.90;;;;;;5060548;28;20267;-85
2022/01/05 07:14:27;;;;;;;2.25;2.15;;;1.70;99.90;;;;;;5060564;28;20785;-85
2022/01/05 07:16:54;;;;;;;2.47;1.90;;;1.70;99.90;;;;;;5057432;28;20586;-86
2022/01/05 07:19:20;;;;;;;2.97;2.03;;;1.60;99.90;;;;;;5056389;28;20215;-85
2022/01/05 07:21:47;;;;;;;4.00;3.40;;;1.50;99.90;;;;;;5061092;28;20652;-86
2022/01/05 07:24:17;;;;;;;2.13;2.03;;;1.60;99.90;;;;;;5055702;28;20260;-86
2022/01/05 07:26:47;;;;;;;2.42;2.20;;;1.50;99.90;;;;;;5069932;28;20229;-86
2022/01/05 07:29:15;;;;;;;2.40;2.20;;;1.50;99.90;;;;;;5084640;28;20209;-84
2022/01/05 07:31:43;;;;;;;4.20;1.33;;;1.50;99.90;;;;;;5067825;28;20207;-86
2022/01/05 07:34:10;;;;;;;1.58;1.27;;;1.60;99.90;;;;;;5058071;28;20293;-86
2022/01/05 07:36:38;;;;;;;1.10;1.10;;;1.50;99.90;;;;;;5058454;28;20198;-87
2022/01/05 07:39:05;;;;;;;1.73;1.63;;;1.50;99.90;;;;;;5058411;28;20206;-83
2022/01/05 07:41:33;;;;;;;4.75;2.10;;;1.40;99.90;;;;;;5075442;28;20286;-85
2022/01/05 07:44:00;;;;;;;1.42;1.33;;;1.40;99.90;;;;;;5061146;28;20222;-84
2022/01/05 07:46:27;;;;;;;2.15;1.95;;;1.40;99.90;;;;;;5057511;28;20215;-84
2022/01/05 07:48:55;;;;;;;1.20;1.20;;;1.40;99.90;;;;;;5056435;28;20203;-84
2022/01/05 07:51:27;;;;;;;1.27;1.20;;;1.40;99.90;;;;;;5056606;28;20202;-83
2022/01/05 07:53:53;;;;;;;1.75;1.60;;;1.40;99.90;;;;;;5056825;28;20230;-84
2022/01/05 07:56:20;;;;;;;2.15;1.40;;;1.40;99.90;;;;;;5059698;28;20201;-81
2022/01/05 07:58:48;;;;;;;1.83;1.73;;;1.40;99.90;;;;;;5061138;28;20732;-81
2022/01/05 08:01:16;;;;;;;1.95;1.70;;;1.40;99.90;;;;;;5062213;28;20202;-81
2022/01/05 08:03:43;;;;;;;3.47;1.67;;;1.40;99.90;;;;;;5058001;28;20284;-81
2022/01/05 08:06:11;;;;;;;4.00;1.90;;;1.50;99.90;;;;;;5057393;28;20214;-81
2022/01/05 08:08:38;;;;;;;5.25;1.92;;;1.60;99.90;;;;;;5057590;28;20211;-80
2022/01/05 08:11:05;;;;;;;2.58;1.85;;;1.50;99.90;;;;;;5056477;28;20202;-81
2022/01/05 08:13:31;;;;;;;3.65;2.95;;;1.50;99.90;;;;;;5057633;28;20204;-81
2022/01/05 08:15:58;;;;;;;2.10;1.92;;;1.50;99.90;;;;;;5054549;28;20210;-80
2022/01/05 08:18:25;;;;;;;4.05;2.20;;;1.30;99.90;;;;;;5055614;28;20198;-79
2022/01/05 08:20:52;;;;;;;3.70;2.10;;;1.30;99.90;;;;;;5056255;28;20206;-80
2022/01/05 08:23:21;;;;;;;5.63;3.28;;;1.30;99.90;;;;;;5054577;28;20198;-80
2022/01/05 08:25:49;;;;;;;2.97;1.73;;;1.30;99.90;;;;;;5055966;28;20693;-79
2022/01/05 08:28:16;;;;;;;2.65;2.53;;;1.30;99.90;;;;;;5055070;28;20593;-79
2022/01/05 08:30:45;;;;;;;5.47;2.40;;;1.30;99.90;;;;;;5055410;28;20217;-79
2022/01/05 08:33:13;;;;;;;2.95;1.55;;;1.30;99.90;;;;;;5055397;28;20207;-80
2022/01/05 08:35:39;;;;;;;2.40;2.22;;;1.30;99.90;;;;;;5055205;28;20556;-79
2022/01/05 08:38:07;;;;;;;1.42;1.33;;;1.20;99.90;;;;;;5054693;28;20695;-79
2022/01/05 08:40:36;;;;;;;2.50;2.03;;;1.20;99.90;;;;;;5055645;28;20206;-80
2022/01/05 08:43:05;;;;;;;1.73;1.60;;;1.20;99.90;;;;;;5055722;28;20213;-80
2022/01/05 08:45:32;;;;;;;3.63;3.42;;;1.20;99.90;;;;;;5055552;28;20240;-79
2022/01/05 08:47:59;;;;;;;2.50;2.00;;;1.20;99.90;;;;;;5055104;28;20889;-80
2022/01/05 08:50:28;;;;;;;2.17;1.85;;;1.20;99.90;;;;;;5055292;28;20209;-78
2022/01/05 08:52:57;;;;;;;1.75;1.65;;;1.30;99.90;;;;;;5060370;28;20202;-80
2022/01/05 08:55:25;;;;;;;3.40;2.05;;;1.20;99.90;;;;;;5058438;28;20223;-80
2022/01/05 08:57:53;;;;;;;3.65;2.15;;;1.10;99.90;;;;;;5056886;28;20199;-81
2022/01/05 09:00:20;;;;;;;1.85;1.75;;;1.00;99.90;;;;;;5076400;28;20205;-82
2022/01/05 09:02:47;;;;;;;2.03;1.92;;;1.00;99.90;;;;;;5080947;28;20216;-81
2022/01/05 09:05:14;;;;;;;4.10;3.20;;;0.90;99.90;;;;;;5063603;28;20222;-85
2022/01/05 09:07:41;;;;;;;3.47;2.00;;;0.90;99.90;;;;;;5058176;28;20283;-81
2022/01/05 09:10:08;;;;;;;4.22;2.35;;;0.90;99.90;;;;;;5058611;28;20208;-82
2022/01/05 09:12:35;;;;;;;4.00;2.00;;;1.00;99.90;;;;;;5059214;28;20201;-83
2022/01/05 09:15:05;;;;;;;1.90;1.77;;;1.00;99.90;;;;;;5059792;28;20228;-84
2022/01/05 09:17:32;;;;;;;3.17;2.22;;;1.00;99.90;;;;;;5058895;28;20292;-83
2022/01/05 09:19:59;;;;;;;2.88;2.45;;;1.00;99.90;;;;;;5059731;28;20212;-84
2022/01/05 09:22:26;;;;;;;1.90;1.45;;;1.10;99.90;;;;;;5060368;28;20222;-84
2022/01/05 09:24:53;;;;;;;1.40;1.30;;;1.20;99.90;;;;;;5060060;28;20226;-84
2022/01/05 09:27:21;;;;;;;2.10;2.00;;;1.20;99.90;;;;;;5059019;28;20209;-84
2022/01/05 09:29:48;;;;;;;1.75;1.35;;;1.30;99.90;;;;;;5059458;28;20229;-83
2022/01/05 09:32:17;;;;;;;3.25;1.85;;;1.40;99.90;;;;;;5070649;28;20193;-82
2022/01/05 09:59:11;;;;;;;4.15;2.33;;;1.40;99.90;;;;;;4874468;29;20199;-83
2022/01/05 10:01:38;;;;;;;5.35;2.28;;;1.50;99.90;;;;;;4889144;29;20224;-83
2022/01/05 10:13:35;;;;;;;1.60;1.48;;;1.50;99.90;;;;;;5010464;28;20257;-83
2022/01/05 10:23:03;;;;;;;1.80;1.70;;;1.60;99.90;;;;;;5015707;28;20215;-84
2022/01/05 10:28:14;;;;;;;2.85;1.55;;;1.60;99.90;;;;;;5060481;28;20244;-86
2022/01/05 10:30:43;;;;;;;1.15;1.05;;;1.50;99.90;;;;;;5060148;28;20213;-86
2022/01/05 10:33:14;;;;;;;1.45;0.93;;;1.60;99.90;;;;;;5062290;28;20202;-84
2022/01/05 10:35:55;;;;;;;1.98;0.82;;;1.30;99.90;;;;;;5066783;28;20277;-85
2022/01/05 10:39:01;;;;;;;3.05;1.92;;;1.20;99.90;;;;;;5062906;28;20619;-86
2022/01/05 11:11:46;;;;;;;1.80;1.52;;;4.40;99.10;;;;;;4973400;28;20254;-85
2022/01/05 11:14:15;;;;;;;5.00;2.58;;;4.10;99.20;;;;;;5038611;28;20226;-84
2022/01/05 11:16:43;;;;;;;4.88;1.30;;;4.00;99.50;;;;;;5063052;28;20740;-84
2022/01/05 11:19:15;;;;;;;3.40;2.92;;;4.60;99.80;;;;;;5062389;28;20212;-86
2022/01/05 11:21:58;;;;;;;2.00;1.75;;;4.90;98.40;;;;;;5059164;28;20213;-86
2022/01/05 11:24:25;;;;;;;1.48;1.35;;;4.10;97.40;;;;;;5060559;28;20231;-85
2022/01/05 11:26:53;;;;;;;3.05;1.90;;;3.50;97.80;;;;;;5060689;28;20202;-85
2022/01/05 11:29:21;;;;;;;3.10;1.80;;;3.30;99.10;;;;;;5061780;28;20214;-86
2022/01/05 11:31:48;;;;;;;6.88;3.80;;;3.30;99.40;;;;;;5071204;28;20234;-85
2022/01/05 11:34:16;;;;;;;3.28;1.48;;;2.90;99.50;;;;;;5062123;28;20228;-83
2022/01/05 11:36:44;;;;;;;3.53;1.70;;;3.50;99.50;;;;;;5061115;28;20204;-84
2022/01/05 11:39:11;;;;;;;1.60;1.45;;;3.80;99.60;;;;;;5060902;28;20251;-85
2022/01/05 11:41:44;;;;;;;1.85;1.33;;;3.70;99.70;;;;;;5061079;28;20237;-85
2022/01/05 11:44:11;;;;;;;3.22;2.92;;;4.10;99.40;;;;;;5060932;28;20224;-85
2022/01/05 11:46:38;;;;;;;1.58;1.48;;;4.80;99.90;;;;;;5072100;28;20205;-85
2022/01/05 11:49:07;;;;;;;2.95;1.80;;;5.80;97.90;;;;;;5080419;28;20288;-88
2022/01/05 11:51:51;;;;;;;1.80;1.70;;;5.50;95.90;;;;;;5063200;28;20209;-88
2022/01/05 11:54:21;;;;;;;2.47;1.60;;;4.50;96.00;;;;;;5039435;28;20226;-87
2022/01/05 11:56:51;;;;;;;1.70;1.60;;;4.50;97.70;;;;;;5039236;28;20195;-87
2022/01/05 11:59:33;;;;;;;1.17;1.15;;;4.20;98.00;;;;;;5040467;28;20197;-86
2022/01/05 12:02:04;;;;;;;4.53;1.63;;;3.60;97.80;;;;;;5039783;28;20211;-85
2022/01/05 12:04:32;;;;;;;2.25;2.03;;;3.50;98.90;;;;;;5039129;28;20263;-88
2022/01/05 12:07:10;;;;;;;1.50;1.40;;;3.90;99.10;;;;;;5040159;28;20281;-86
2022/01/05 12:09:39;;;;;;;3.03;1.85;;;4.50;98.70;;;;;;5044023;28;20206;-85
2022/01/05 12:12:32;;;;;;;2.25;1.58;;;4.70;97.50;;;;;;5058198;28;20198;-85
2022/01/05 12:15:01;;;;;;;1.48;1.38;;;4.60;96.60;;;;;;5061831;28;20226;-86
2022/01/05 12:17:29;;;;;;;1.08;1.08;;;4.90;97.10;;;;;;5060618;28;20681;-87
2022/01/05 12:21:00;;;;;;;1.80;1.70;;;5.20;95.80;;;;;;5060522;28;20216;-86
2022/01/05 12:23:30;;;;;;;1.45;1.35;;;4.80;95.60;;;;;;5032351;28;20264;-86
2022/01/05 12:26:16;;;;;;;4.50;1.08;;;3.70;96.20;;;;;;5060574;28;20658;-86
2022/01/05 12:28:52;;;;;;;2.47;2.05;;;3.20;97.70;;;;;;5064908;28;20208;-85
2022/01/05 12:31:19;;;;;;;1.85;1.75;;;3.20;97.90;;;;;;5065350;28;20287;-86
2022/01/05 12:33:48;;;;;;;3.63;2.22;;;2.80;97.90;;;;;;5064814;28;20247;-86
2022/01/05 12:36:33;;;;;;;3.70;0.95;;;2.50;98.20;;;;;;5065659;28;20294;-86
2022/01/05 12:39:03;;;;;;;1.33;1.15;;;2.50;98.40;;;;;;5066544;28;20226;-86
2022/01/05 12:41:38;;;;;;;3.85;1.45;;;3.40;98.20;;;;;;5065769;28;20209;-86
2022/01/05 12:44:41;;;;;;;1.55;1.45;;;4.00;97.00;;;;;;5065848;28;20217;-85
2022/01/05 12:47:13;;;;;;;2.88;1.27;;;4.60;96.00;;;;;;5061867;28;20720;-85
2022/01/05 12:53:52;;;;;;;1.42;1.23;;;5.50;94.80;;;;;;5051675;28;20205;-87
2022/01/05 12:56:32;;;;;;;2.28;1.40;;;5.80;93.60;;;;;;5063411;28;20201;-87
2022/01/05 12:59:50;;;;;;;2.45;1.27;;;5.40;93.40;;;;;;5043293;28;20198;-86
2022/01/05 13:14:08;;;;;;;4.25;3.20;;;5.00;92.60;;;;;;5730146;22;20245;-86
2022/01/05 13:17:36;;;;;;;5.70;1.83;;;4.90;94.50;;;;;;5002072;28;20631;-84
2022/01/05 13:20:08;;;;;;;4.95;1.75;;;4.90;94.30;;;;;;5027592;28;20208;-84
2022/01/05 13:22:37;;;;;;;5.55;2.20;;;5.20;93.80;;;;;;5041324;28;20187;-88
2022/01/05 13:25:06;;;;;;;5.00;2.13;;;5.80;94.40;;;;;;5027710;28;20236;-86
2022/01/05 13:30:36;;;;;;;6.05;1.40;;;5.70;92.10;;;;;;5127772;27;20521;-88
2022/01/05 13:33:06;;;;;;;1.45;1.27;;;5.50;92.50;;;;;;5095843;28;20288;-87
2022/01/05 13:35:38;;;;;;;1.02;0.77;;;5.60;92.70;;;;;;5075801;28;20235;-87
2022/01/05 13:38:06;;;;;;;1.23;1.13;;;5.40;93.00;;;;;;5075533;28;20193;-87
2022/01/05 13:40:36;;;;;;;1.98;1.15;;;5.70;93.50;;;;;;5082424;28;20269;-87
2022/01/05 13:43:06;;;;;;;5.45;1.75;;;5.50;92.60;;;;;;5083216;28;20325;-87
2022/01/05 13:45:37;;;;;;;2.20;1.05;;;4.80;93.00;;;;;;5065473;28;20214;-88
2022/01/05 13:48:06;;;;;;;3.10;2.40;;;4.30;93.40;;;;;;5103753;28;20195;-88
2022/01/05 13:50:35;;;;;;;5.15;2.05;;;4.00;94.10;;;;;;5103509;28;20227;-87
2022/01/05 13:53:13;;;;;;;3.42;1.50;;;3.80;95.00;;;;;;5101068;28;20219;-88
2022/01/05 13:55:43;;;;;;;2.00;1.90;;;3.60;96.10;;;;;;5079594;28;20605;-86
2022/01/05 13:58:17;;;;;;;4.80;2.05;;;3.70;96.30;;;;;;5079044;28;20197;-85
2022/01/05 14:00:47;;;;;;;5.45;2.10;;;3.80;95.40;;;;;;5092326;28;20207;-85
2022/01/05 14:03:29;;;;;;;2.90;1.52;;;4.10;95.40;;;;;;5079330;28;20594;-85
2022/01/05 14:05:56;;;;;;;2.60;1.65;;;3.80;95.00;;;;;;5081113;28;20207;-85
2022/01/05 14:08:34;;;;;;;1.05;1.05;;;4.10;95.10;;;;;;5060997;28;20210;-85
2022/01/05 14:11:09;;;;;;;4.18;1.35;;;4.30;94.30;;;;;;5061070;28;20214;-85
2022/01/05 14:13:43;;;;;;;5.70;1.80;;;4.10;94.30;;;;;;5060856;28;20235;-84
2022/01/05 14:16:29;;;;;;;1.40;1.13;;;3.60;94.60;;;;;;5066400;28;20638;-85
2022/01/05 14:19:00;;;;;;;4.72;1.42;;;3.10;95.60;;;;;;5080870;28;20187;-84
2022/01/05 14:21:28;;;;;;;3.80;2.05;;;2.70;96.40;;;;;;5081139;28;20207;-85
2022/01/05 14:23:55;;;;;;;3.00;1.95;;;2.60;97.00;;;;;;5081044;28;20235;-84
2022/01/05 14:26:25;;;;;;;2.28;1.75;;;2.50;97.00;;;;;;5081720;28;20212;-86
2022/01/05 14:28:52;;;;;;;1.65;1.45;;;2.50;97.80;;;;;;5080949;28;20233;-84
2022/01/05 14:31:19;;;;;;;3.22;1.88;;;2.60;97.80;;;;;;5081815;28;20233;-86
2022/01/05 14:33:52;;;;;;;3.10;1.10;;;2.50;97.50;;;;;;5081397;28;20230;-85
2022/01/05 14:36:22;;;;;;;2.13;1.52;;;2.30;98.20;;;;;;5083790;28;20210;-84
2022/01/05 14:38:53;;;;;;;2.05;1.80;;;2.10;98.40;;;;;;5085630;28;20202;-84
2022/01/05 14:42:24;;;;;;;2.85;2.13;;;2.00;98.70;;;;;;5069365;28;20200;-83